Trosky, Minnesota
Current Conditions -  °F | °C
As of 2:14 AM on Monday 26 Jan 2015 (Local Time) from KPQN Reporting Station
Scattered Clouds Scattered Clouds  
Wind Chill: 21°   Ceiling: Unl
Heat Index: 30°   Visibility: 7mi
Dew Point: 30°   Wind: 10mph
Humidity: 100%   Direction: 230°SW
Pressure: 29.85"   Gusts: NA
Location:  43.89°N, 96.26°W
Report Text: KPQN 260814Z AUTO 23009KT 7SM SCT110 M01/M01 A2985 RMK AO2
Loading
Personal Weather Stations






























Interactive Weather Map New forecast layout! Learn more

10-Day Weather Forecast

Advertisements
Track Severe Weather on mobile